createdAt,value
2017-07-30T00:00:40.120Z,6.40
2017-07-30T00:03:09.751Z,6.10
2017-07-30T00:05:39.698Z,8.07
2017-07-30T00:08:08.193Z,8.23
2017-07-30T00:10:37.050Z,6.70
2017-07-30T00:13:05.549Z,8.67
2017-07-30T00:15:34.420Z,8.60
2017-07-30T00:18:02.896Z,7.93
2017-07-30T00:20:32.165Z,6.43
2017-07-30T00:23:01.036Z,6.30
2017-07-30T00:25:30.480Z,6.13
2017-07-30T00:28:00.087Z,7.30
2017-07-30T00:30:29.437Z,7.03
2017-07-30T00:32:58.082Z,8.03
2017-07-30T00:35:26.948Z,7.40
2017-07-30T00:37:55.819Z,6.60
2017-07-30T00:40:25.041Z,7.00
2017-07-30T00:42:53.939Z,7.37
2017-07-30T00:45:22.783Z,6.90
2017-07-30T00:47:51.367Z,6.63
2017-07-30T00:50:19.850Z,6.33
2017-07-30T00:52:48.676Z,8.07
2017-07-30T00:55:17.970Z,9.07
2017-07-30T00:57:46.900Z,6.63
2017-07-30T01:00:15.438Z,8.33
2017-07-30T01:02:45.064Z,9.40
2017-07-30T01:05:15.012Z,7.23
2017-07-30T01:07:44.784Z,8.00
2017-07-30T01:10:14.778Z,8.53
2017-07-30T01:12:43.256Z,7.23
2017-07-30T01:15:12.940Z,8.00
2017-07-30T01:17:42.536Z,8.83
2017-07-30T01:20:11.683Z,9.10
2017-07-30T01:22:41.626Z,8.00
2017-07-30T01:25:10.453Z,7.50
2017-07-30T01:27:39.815Z,8.07
2017-07-30T01:30:08.287Z,8.40
2017-07-30T01:32:37.192Z,7.87
2017-07-30T01:35:06.028Z,11.17
2017-07-30T01:37:35.273Z,9.73
2017-07-30T01:40:04.504Z,9.10
2017-07-30T01:42:33.790Z,8.63
2017-07-30T01:45:03.134Z,8.83
2017-07-30T01:47:31.983Z,10.10
2017-07-30T01:50:00.430Z,9.10
2017-07-30T01:52:28.921Z,8.37
2017-07-30T01:54:59.128Z,6.87
2017-07-30T01:57:27.581Z,8.67
2017-07-30T01:59:56.432Z,7.70
2017-07-30T02:02:25.351Z,9.03
2017-07-30T02:04:53.849Z,8.57
2017-07-30T02:07:23.792Z,9.00
2017-07-30T02:09:52.694Z,7.40
2017-07-30T02:12:22.291Z,7.87
2017-07-30T02:14:51.498Z,8.37
2017-07-30T02:17:20.442Z,8.00
2017-07-30T02:19:50.334Z,7.77
2017-07-30T02:22:18.779Z,6.40
2017-07-30T02:24:48.072Z,8.30
2017-07-30T02:27:16.551Z,7.30
2017-07-30T02:29:45.769Z,7.87
2017-07-30T02:32:14.263Z,7.70
2017-07-30T02:34:43.097Z,8.30
2017-07-30T02:37:12.028Z,8.10
2017-07-30T02:39:42.039Z,7.30
2017-07-30T02:42:11.313Z,6.33
2017-07-30T02:44:39.773Z,8.67
2017-07-30T02:47:08.219Z,7.77
2017-07-30T02:49:36.771Z,7.20
2017-07-30T02:52:05.240Z,6.30
2017-07-30T02:54:34.357Z,6.73
2017-07-30T02:57:03.833Z,6.87
2017-07-30T02:59:32.314Z,6.70
2017-07-30T03:02:01.980Z,7.47
2017-07-30T03:04:31.580Z,6.10
2017-07-30T03:07:01.136Z,6.00
2017-07-30T03:09:29.596Z,7.27
2017-07-30T03:11:58.054Z,6.60
2017-07-30T03:14:26.575Z,7.00
2017-07-30T03:16:55.208Z,7.63
2017-07-30T03:19:23.686Z,7.10
2017-07-30T03:21:52.167Z,7.50
2017-07-30T03:24:20.447Z,6.63
2017-07-30T03:26:48.931Z,6.30
2017-07-30T03:29:19.666Z,6.13
2017-07-30T03:31:48.105Z,7.80
2017-07-30T03:34:16.999Z,6.10
2017-07-30T03:36:45.876Z,7.83
2017-07-30T03:39:14.737Z,6.87
2017-07-30T03:41:43.202Z,5.50
2017-07-30T03:44:11.914Z,6.87
2017-07-30T03:46:40.756Z,6.40
2017-07-30T03:49:09.216Z,5.50
2017-07-30T03:51:38.294Z,6.60
2017-07-30T03:54:07.170Z,5.33
2017-07-30T03:56:35.606Z,6.50
2017-07-30T03:59:04.104Z,6.47
2017-07-30T04:09:08.651Z,6.27
2017-07-30T04:11:37.092Z,7.50
2017-07-30T04:14:05.924Z,5.83
2017-07-30T04:16:36.008Z,6.27
2017-07-30T04:19:05.208Z,6.57
2017-07-30T04:21:35.666Z,5.43
2017-07-30T04:24:04.101Z,6.57
2017-07-30T04:26:32.526Z,6.30
2017-07-30T04:29:01.795Z,5.90
2017-07-30T04:31:30.990Z,6.63
2017-07-30T04:34:00.184Z,6.10
2017-07-30T04:36:29.426Z,7.80
2017-07-30T04:38:58.260Z,6.67
2017-07-30T04:41:26.739Z,5.43
2017-07-30T04:43:55.225Z,6.67
2017-07-30T04:46:24.421Z,5.90
2017-07-30T04:48:52.853Z,5.90
2017-07-30T04:51:21.719Z,6.10
2017-07-30T04:53:50.146Z,6.00
2017-07-30T04:56:18.613Z,5.70
2017-07-30T04:58:47.038Z,5.87
2017-07-30T05:01:15.541Z,4.77
2017-07-30T05:03:43.971Z,6.50
2017-07-30T05:06:12.403Z,5.00
2017-07-30T05:08:40.871Z,5.03
2017-07-30T05:11:09.301Z,5.53
2017-07-30T05:13:37.742Z,4.63
2017-07-30T05:16:06.258Z,4.80
2017-07-30T05:18:34.729Z,5.13
2017-07-30T05:21:03.164Z,3.90
2017-07-30T05:23:31.603Z,5.10
2017-07-30T05:26:00.321Z,3.97
2017-07-30T05:28:28.750Z,4.43
2017-07-30T05:30:57.621Z,3.80
2017-07-30T05:33:26.089Z,3.70
2017-07-30T05:35:54.509Z,3.67
2017-07-30T05:38:22.981Z,4.27
2017-07-30T05:40:51.460Z,4.10
2017-07-30T05:43:19.897Z,3.50
2017-07-30T05:45:48.822Z,4.87
2017-07-30T05:48:17.649Z,4.80
2017-07-30T05:50:46.081Z,5.30
2017-07-30T05:53:14.957Z,5.17
2017-07-30T05:55:43.402Z,4.90
2017-07-30T05:58:11.831Z,3.87
2017-07-30T06:00:41.495Z,4.37
2017-07-30T06:03:09.929Z,5.50
2017-07-30T06:05:38.391Z,5.67
2017-07-30T06:08:07.694Z,3.20
2017-07-30T06:10:36.131Z,3.90
2017-07-30T06:13:04.557Z,4.10
2017-07-30T06:15:33.033Z,4.30
2017-07-30T06:18:01.463Z,3.80
2017-07-30T06:20:29.893Z,3.30
2017-07-30T06:22:58.548Z,3.70
2017-07-30T06:25:26.975Z,3.57
2017-07-30T06:27:55.402Z,3.60
2017-07-30T06:30:23.886Z,3.20
2017-07-30T06:32:52.331Z,5.27
2017-07-30T06:35:20.760Z,5.83
2017-07-30T06:37:49.256Z,3.70
2017-07-30T06:40:17.699Z,6.20
2017-07-30T06:42:46.146Z,3.10
2017-07-30T06:45:14.609Z,4.13
2017-07-30T06:47:43.031Z,3.47
2017-07-30T06:50:12.223Z,3.20
2017-07-30T06:52:40.716Z,4.50
2017-07-30T06:55:09.151Z,4.10
2017-07-30T06:57:38.047Z,4.47
2017-07-30T07:00:06.492Z,4.50
2017-07-30T07:02:34.923Z,5.27
2017-07-30T07:05:03.411Z,3.70
2017-07-30T07:07:31.850Z,7.30
2017-07-30T07:10:00.282Z,2.63
2017-07-30T07:12:28.811Z,4.30
2017-07-30T07:14:57.244Z,6.00
2017-07-30T07:17:26.448Z,3.80
2017-07-30T07:19:54.920Z,4.87
2017-07-30T07:22:23.795Z,3.57
2017-07-30T07:24:52.229Z,6.40
2017-07-30T07:27:20.751Z,3.83
2017-07-30T07:29:49.197Z,3.80
2017-07-30T07:32:18.404Z,2.93
2017-07-30T07:34:47.694Z,4.20
2017-07-30T07:37:17.252Z,3.10
2017-07-30T07:39:45.698Z,3.70
2017-07-30T07:42:14.180Z,5.10
2017-07-30T07:44:42.656Z,5.03
2017-07-30T07:47:11.098Z,5.30
2017-07-30T07:49:39.523Z,5.00
2017-07-30T07:52:08.017Z,3.53
2017-07-30T07:54:36.869Z,5.07
2017-07-30T07:57:05.322Z,3.87
2017-07-30T07:59:34.452Z,5.13
2017-07-30T08:02:03.668Z,4.23
2017-07-30T08:04:32.102Z,5.63
2017-07-30T08:07:00.600Z,3.70
2017-07-30T08:09:29.043Z,5.20
2017-07-30T08:11:57.885Z,4.20
2017-07-30T08:14:26.045Z,5.67
2017-07-30T08:16:54.479Z,4.10
2017-07-30T08:19:23.694Z,6.47
2017-07-30T08:21:52.189Z,4.40
2017-07-30T08:24:21.182Z,4.87
2017-07-30T08:26:50.367Z,4.33
2017-07-30T08:29:19.983Z,4.43
2017-07-30T08:31:48.415Z,6.23
2017-07-30T08:34:18.414Z,4.10
2017-07-30T08:36:47.615Z,3.70
2017-07-30T08:39:16.121Z,4.80
2017-07-30T08:41:44.564Z,4.97
2017-07-30T08:44:13.783Z,4.07
2017-07-30T08:46:42.658Z,6.30
2017-07-30T08:49:12.041Z,6.93
2017-07-30T08:51:40.493Z,5.47
2017-07-30T08:54:09.355Z,4.07
2017-07-30T08:56:38.227Z,3.37
2017-07-30T08:59:07.049Z,4.10
2017-07-30T09:01:35.525Z,4.33
2017-07-30T09:04:03.998Z,4.90
2017-07-30T09:06:32.440Z,5.27
2017-07-30T09:09:00.924Z,4.57
2017-07-30T09:11:30.171Z,5.20
2017-07-30T09:13:59.424Z,3.43
2017-07-30T09:16:28.620Z,4.60
2017-07-30T09:18:57.103Z,4.57
2017-07-30T09:21:25.547Z,5.17
2017-07-30T09:23:54.374Z,4.27
2017-07-30T09:26:23.268Z,6.17
2017-07-30T09:28:51.694Z,3.83
2017-07-30T09:31:20.940Z,3.80
2017-07-30T09:33:50.200Z,4.63
2017-07-30T09:36:18.644Z,5.13
2017-07-30T09:38:47.486Z,3.53
2017-07-30T09:41:15.961Z,3.87
2017-07-30T09:43:44.784Z,4.30
2017-07-30T09:46:13.628Z,4.87
2017-07-30T09:48:43.325Z,3.53
2017-07-30T09:51:11.748Z,4.00
2017-07-30T09:53:41.248Z,3.62
2017-07-30T09:56:10.138Z,4.50
2017-07-30T09:58:39.009Z,3.67
2017-07-30T10:01:07.423Z,4.03
2017-07-30T10:03:35.932Z,4.20
2017-07-30T10:06:05.664Z,3.50
2017-07-30T10:08:34.113Z,6.20
2017-07-30T10:11:02.948Z,3.87
2017-07-30T10:13:31.773Z,5.17
2017-07-30T10:16:00.254Z,5.23
2017-07-30T10:18:29.826Z,4.43
2017-07-30T10:20:59.290Z,4.70
2017-07-30T10:23:28.116Z,6.20
2017-07-30T10:25:57.367Z,5.30
2017-07-30T10:28:26.225Z,4.50
2017-07-30T10:30:55.428Z,4.43
2017-07-30T10:33:24.332Z,3.17
2017-07-30T10:35:53.183Z,4.60
2017-07-30T10:38:22.012Z,3.70
2017-07-30T10:40:51.272Z,3.80
2017-07-30T10:43:19.703Z,3.60
2017-07-30T10:45:48.930Z,5.83
2017-07-30T10:48:18.164Z,3.53
2017-07-30T10:50:46.996Z,5.20
2017-07-30T10:53:15.470Z,4.70
2017-07-30T10:55:44.349Z,4.30
2017-07-30T10:58:13.559Z,4.07
2017-07-30T11:00:42.389Z,4.37
2017-07-30T11:03:11.259Z,4.07
2017-07-30T11:05:39.779Z,5.47
2017-07-30T11:08:08.202Z,3.87
2017-07-30T11:10:36.663Z,4.23
2017-07-30T11:13:05.868Z,3.87
2017-07-30T11:15:34.795Z,4.33
2017-07-30T11:18:03.614Z,3.60
2017-07-30T11:20:33.036Z,4.90
2017-07-30T11:23:01.871Z,3.27
2017-07-30T11:25:31.194Z,4.90
2017-07-30T11:28:00.031Z,4.20
2017-07-30T11:30:28.459Z,5.00
2017-07-30T11:32:56.910Z,4.27
2017-07-30T11:35:25.528Z,4.80
2017-07-30T11:37:54.351Z,3.70
2017-07-30T11:40:23.600Z,3.67
2017-07-30T11:42:52.439Z,4.00
2017-07-30T11:45:20.861Z,3.63
2017-07-30T11:47:49.440Z,4.30
2017-07-30T11:50:18.271Z,3.30
2017-07-30T11:52:46.694Z,4.17
2017-07-30T11:55:15.952Z,3.67
2017-07-30T11:57:44.417Z,4.43
2017-07-30T12:00:12.846Z,5.00
2017-07-30T12:02:41.308Z,3.30
2017-07-30T12:05:10.554Z,3.53
2017-07-30T12:07:38.994Z,4.50
2017-07-30T12:10:08.192Z,4.23
2017-07-30T12:12:36.696Z,4.10
2017-07-30T12:15:05.894Z,3.60
2017-07-30T12:17:34.317Z,3.90
2017-07-30T12:20:02.782Z,4.40
2017-07-30T12:22:31.084Z,3.33
2017-07-30T12:24:59.912Z,3.90
2017-07-30T12:27:28.356Z,3.47
2017-07-30T12:29:56.861Z,4.43
2017-07-30T12:32:25.905Z,3.70
2017-07-30T12:34:54.353Z,6.53
2017-07-30T12:37:23.618Z,4.43
2017-07-30T12:39:52.851Z,3.40
2017-07-30T12:42:21.688Z,3.43
2017-07-30T12:44:50.502Z,5.90
2017-07-30T12:47:18.966Z,4.57
2017-07-30T12:49:47.399Z,4.47
2017-07-30T12:52:16.265Z,6.27
2017-07-30T12:54:45.263Z,8.67
2017-07-30T12:57:14.130Z,7.03
2017-07-30T12:59:43.340Z,6.67
2017-07-30T13:02:12.177Z,7.17
2017-07-30T13:04:41.013Z,5.70
2017-07-30T13:07:09.907Z,4.83
2017-07-30T13:09:39.103Z,4.50
2017-07-30T13:12:07.944Z,7.23
2017-07-30T13:14:36.380Z,5.30
2017-07-30T13:17:05.621Z,4.87
2017-07-30T13:19:34.463Z,5.53
2017-07-30T13:22:03.668Z,6.07
2017-07-30T13:24:32.896Z,6.50
2017-07-30T13:27:01.726Z,5.47
2017-07-30T13:29:30.205Z,4.87
2017-07-30T13:31:58.461Z,6.53
2017-07-30T13:34:26.893Z,5.50
2017-07-30T13:36:55.769Z,6.13
2017-07-30T13:39:25.056Z,6.03
2017-07-30T13:41:53.492Z,7.27
2017-07-30T13:44:22.699Z,7.77
2017-07-30T13:46:51.179Z,8.83
2017-07-30T13:49:19.292Z,6.70
2017-07-30T13:51:47.816Z,6.83
2017-07-30T13:54:17.015Z,8.07
2017-07-30T13:56:46.611Z,5.83
2017-07-30T13:59:15.103Z,5.27
2017-07-30T14:01:44.295Z,6.00
2017-07-30T14:04:12.740Z,5.17
2017-07-30T14:06:41.224Z,5.03
2017-07-30T14:09:09.680Z,4.90
2017-07-30T14:11:39.201Z,4.80
2017-07-30T14:14:08.041Z,4.70
2017-07-30T14:16:36.891Z,6.07
2017-07-30T14:19:05.779Z,4.13
2017-07-30T14:21:34.216Z,5.80
2017-07-30T14:24:02.640Z,5.37
2017-07-30T14:26:31.126Z,5.63
2017-07-30T14:28:59.610Z,4.70
2017-07-30T14:31:29.197Z,7.20
2017-07-30T14:33:57.692Z,4.97
2017-07-30T14:36:26.132Z,6.90
2017-07-30T14:38:54.389Z,5.70
2017-07-30T14:41:23.656Z,5.60
2017-07-30T14:43:52.118Z,8.00
2017-07-30T14:46:20.621Z,6.43
2017-07-30T14:48:49.483Z,7.60
2017-07-30T14:51:17.960Z,4.30
2017-07-30T14:53:46.455Z,6.20
2017-07-30T14:56:14.876Z,6.40
2017-07-30T14:58:43.700Z,4.73
2017-07-30T15:01:12.173Z,5.03
2017-07-30T15:03:40.634Z,5.90
2017-07-30T15:06:09.076Z,5.33
2017-07-30T15:08:37.565Z,5.17
2017-07-30T15:11:06.009Z,5.50
2017-07-30T15:13:34.869Z,5.60
2017-07-30T15:16:04.065Z,4.60
2017-07-30T15:18:32.542Z,5.97
2017-07-30T15:21:01.813Z,4.33
2017-07-30T15:23:30.260Z,4.93
2017-07-30T15:25:58.707Z,4.23
2017-07-30T15:28:27.027Z,5.50
2017-07-30T15:30:55.712Z,5.30
2017-07-30T15:33:24.166Z,5.30
2017-07-30T15:35:52.655Z,4.43
2017-07-30T15:38:20.923Z,5.93
2017-07-30T15:40:49.357Z,5.30
2017-07-30T15:43:17.826Z,4.93
2017-07-30T15:45:46.264Z,5.10
2017-07-30T15:48:14.718Z,5.83
2017-07-30T15:50:43.192Z,3.80
2017-07-30T15:53:11.637Z,4.77
2017-07-30T15:55:40.088Z,3.90
2017-07-30T15:58:08.556Z,3.40
2017-07-30T16:00:36.996Z,6.77
2017-07-30T16:03:05.919Z,4.33
2017-07-30T16:05:35.128Z,5.03
2017-07-30T16:08:03.565Z,5.20
2017-07-30T16:10:32.056Z,4.50
2017-07-30T16:13:00.477Z,4.10
2017-07-30T16:15:28.940Z,4.60
2017-07-30T16:17:58.201Z,4.50
2017-07-30T16:20:26.700Z,4.30
2017-07-30T16:22:55.156Z,3.97
2017-07-30T16:25:23.606Z,4.30
2017-07-30T16:27:52.112Z,10.53
2017-07-30T16:30:20.542Z,7.10
2017-07-30T16:32:48.984Z,5.00
2017-07-30T16:35:17.497Z,5.37
2017-07-30T16:37:46.703Z,4.20
2017-07-30T16:40:15.557Z,4.90
2017-07-30T16:42:44.395Z,4.90
2017-07-30T16:45:13.595Z,4.43
2017-07-30T16:47:42.044Z,4.97
2017-07-30T16:50:11.296Z,4.00
2017-07-30T16:52:39.779Z,5.27
2017-07-30T16:55:08.620Z,5.43
2017-07-30T16:57:37.148Z,5.30
2017-07-30T17:00:06.053Z,4.30
2017-07-30T17:02:34.490Z,5.07
2017-07-30T17:05:03.678Z,4.50
2017-07-30T17:07:32.530Z,5.10
2017-07-30T17:10:00.985Z,4.17
2017-07-30T17:12:29.408Z,5.17
2017-07-30T17:14:57.895Z,3.93
2017-07-30T17:17:26.340Z,8.40
2017-07-30T17:19:54.799Z,11.93
2017-07-30T17:22:24.721Z,8.60
2017-07-30T17:24:53.919Z,9.27
2017-07-30T17:27:22.350Z,16.97
2017-07-30T17:29:50.844Z,6.73
2017-07-30T17:32:19.290Z,6.23
2017-07-30T17:34:47.716Z,8.97
2017-07-30T17:37:17.776Z,5.20
2017-07-30T17:39:46.227Z,9.40
2017-07-30T17:42:14.665Z,5.70
2017-07-30T17:44:43.147Z,5.43
2017-07-30T17:47:11.975Z,6.10
2017-07-30T17:49:41.180Z,5.40
2017-07-30T17:52:09.603Z,5.47
2017-07-30T17:54:38.082Z,5.87
2017-07-30T17:57:06.510Z,6.07
2017-07-30T17:59:34.934Z,5.87
2017-07-30T18:02:03.414Z,7.10
2017-07-30T18:04:31.949Z,6.60
2017-07-30T18:07:01.146Z,5.47
2017-07-30T18:09:30.386Z,5.37
2017-07-30T18:11:58.867Z,6.87
2017-07-30T18:14:27.340Z,5.43
2017-07-30T18:16:55.609Z,5.70
2017-07-30T18:19:24.123Z,5.50
2017-07-30T18:21:53.388Z,5.87
2017-07-30T18:24:22.212Z,5.60
2017-07-30T18:26:50.653Z,6.73
2017-07-30T18:29:19.135Z,6.77
2017-07-30T18:31:48.011Z,5.67
2017-07-30T18:34:16.448Z,6.13
2017-07-30T18:36:44.918Z,5.90
2017-07-30T18:39:13.429Z,5.70
2017-07-30T18:41:42.247Z,6.57
2017-07-30T18:44:10.677Z,6.10
2017-07-30T18:46:39.545Z,7.10
2017-07-30T18:49:07.977Z,8.13
2017-07-30T18:51:36.827Z,6.70
2017-07-30T18:54:05.294Z,8.10
2017-07-30T18:56:34.186Z,6.50
2017-07-30T18:59:02.670Z,6.50
2017-07-30T19:01:31.512Z,8.20
2017-07-30T19:04:00.360Z,6.73
2017-07-30T19:06:28.829Z,8.57
2017-07-30T19:08:57.313Z,10.07
2017-07-30T19:11:26.888Z,10.87
2017-07-30T19:13:55.326Z,10.00
2017-07-30T19:16:24.521Z,12.67
2017-07-30T19:18:53.040Z,10.00
2017-07-30T19:21:21.868Z,10.17
2017-07-30T19:23:50.703Z,12.13
2017-07-30T19:26:19.163Z,15.53
2017-07-30T19:28:47.471Z,12.60
2017-07-30T19:31:16.571Z,14.50
2017-07-30T19:33:45.783Z,11.67
2017-07-30T19:36:14.283Z,10.70
2017-07-30T19:38:43.133Z,10.47
2017-07-30T19:41:11.575Z,9.83
2017-07-30T19:43:40.865Z,11.13
2017-07-30T19:46:09.342Z,8.97
2017-07-30T19:48:38.147Z,10.20
2017-07-30T19:51:06.984Z,10.40
2017-07-30T19:53:35.428Z,10.00
2017-07-30T19:56:03.920Z,12.47
2017-07-30T19:58:33.128Z,11.60
2017-07-30T20:01:02.008Z,13.97
2017-07-30T20:03:30.839Z,12.20
2017-07-30T20:05:59.268Z,11.97
2017-07-30T20:08:27.738Z,11.70
2017-07-30T20:10:56.556Z,12.80
2017-07-30T20:13:25.398Z,13.47
2017-07-30T20:15:54.148Z,13.60
2017-07-30T20:18:22.579Z,15.27
2017-07-30T20:20:51.018Z,15.50
2017-07-30T20:23:20.278Z,14.00
2017-07-30T20:25:48.899Z,12.70
2017-07-30T20:28:17.780Z,11.90
2017-07-30T20:30:46.223Z,14.40
2017-07-30T20:33:14.656Z,13.37
2017-07-30T20:35:43.166Z,14.13
2017-07-30T20:38:11.631Z,13.10
2017-07-30T20:40:40.475Z,13.30
2017-07-30T20:43:08.940Z,11.80
2017-07-30T20:45:37.378Z,12.20
2017-07-30T20:48:05.874Z,13.27
2017-07-30T20:50:35.091Z,14.73
2017-07-30T20:53:03.527Z,11.00
2017-07-30T20:55:32.406Z,13.20
2017-07-30T20:58:01.300Z,11.40
2017-07-30T21:00:31.230Z,12.53
2017-07-30T21:02:59.679Z,11.07
2017-07-30T21:05:28.169Z,12.33
2017-07-30T21:07:56.999Z,10.40
2017-07-30T21:10:25.435Z,14.03
2017-07-30T21:12:53.914Z,11.83
2017-07-30T21:15:22.755Z,11.77
2017-07-30T21:17:51.191Z,14.60
2017-07-30T21:20:19.827Z,12.10
2017-07-30T21:22:48.536Z,12.07
2017-07-30T21:25:16.984Z,11.70
2017-07-30T21:27:45.415Z,12.90
2017-07-30T21:30:13.902Z,13.20
2017-07-30T21:32:42.732Z,10.43
2017-07-30T21:35:12.022Z,12.83
2017-07-30T21:37:40.472Z,13.47
2017-07-30T21:40:08.943Z,12.57
2017-07-30T21:42:38.147Z,12.03
2017-07-30T21:45:06.587Z,11.60
2017-07-30T21:47:35.462Z,12.90
2017-07-30T21:50:04.288Z,15.50
2017-07-30T21:52:33.142Z,12.00
2017-07-30T21:55:01.623Z,12.80
2017-07-30T21:57:30.448Z,11.00
2017-07-30T21:59:58.885Z,10.90
2017-07-30T22:02:27.636Z,9.73
2017-07-30T22:04:57.222Z,12.27
2017-07-30T22:07:26.451Z,16.90
2017-07-30T22:09:58.530Z,14.13
2017-07-30T22:12:27.436Z,13.80
2017-07-30T22:14:57.440Z,14.03
2017-07-30T22:17:27.438Z,14.60
2017-07-30T22:19:55.904Z,12.50
2017-07-30T22:22:25.501Z,13.93
2017-07-30T22:24:54.722Z,15.07
2017-07-30T22:27:24.203Z,13.93
2017-07-30T22:29:53.064Z,12.30
2017-07-30T22:32:22.275Z,15.43
2017-07-30T22:34:51.520Z,9.90
2017-07-30T22:37:20.970Z,10.03
2017-07-30T22:39:49.903Z,10.17
2017-07-30T22:42:18.749Z,10.80
2017-07-30T22:44:47.229Z,12.07
2017-07-30T22:47:16.305Z,12.17
2017-07-30T22:49:45.160Z,12.03
2017-07-30T22:52:14.670Z,13.30
2017-07-30T22:54:43.532Z,10.87
2017-07-30T22:57:12.786Z,12.70
2017-07-30T22:59:45.166Z,13.40
2017-07-30T23:02:13.609Z,9.13
2017-07-30T23:04:42.841Z,12.07
2017-07-30T23:07:12.537Z,11.87
2017-07-30T23:09:42.513Z,14.83
2017-07-30T23:12:12.120Z,18.20
2017-07-30T23:14:41.565Z,10.20
2017-07-30T23:17:10.394Z,8.40
2017-07-30T23:19:39.245Z,14.40
2017-07-30T23:22:08.491Z,9.40
2017-07-30T23:24:38.430Z,9.23
2017-07-30T23:27:08.058Z,7.23
2017-07-30T23:29:37.037Z,9.37
2017-07-30T23:32:05.606Z,8.27
2017-07-30T23:34:35.065Z,9.10
2017-07-30T23:37:04.524Z,7.63
2017-07-30T23:39:33.773Z,11.27
2017-07-30T23:42:02.637Z,11.50
2017-07-30T23:44:31.092Z,13.00
2017-07-30T23:47:00.376Z,9.40
2017-07-30T23:49:29.840Z,10.27
2017-07-30T23:51:59.800Z,8.50
2017-07-30T23:54:29.423Z,11.57
2017-07-30T23:56:58.638Z,6.00
2017-07-30T23:59:27.867Z,9.53
